createdAt,value
2018-03-22T00:00:23.599Z,79.10
2018-03-22T00:01:23.570Z,79.95
2018-03-22T00:02:23.613Z,80.43
2018-03-22T00:03:23.561Z,79.67
2018-03-22T00:04:23.548Z,79.19
2018-03-22T00:05:23.544Z,79.57
2018-03-22T00:06:23.541Z,80.24
2018-03-22T00:07:23.551Z,80.24
2018-03-22T00:08:23.601Z,79.57
2018-03-22T00:09:23.527Z,79.57
2018-03-22T00:10:23.524Z,79.48
2018-03-22T00:11:23.507Z,79.38
2018-03-22T00:12:23.490Z,79.67
2018-03-22T00:13:23.554Z,79.10
2018-03-22T00:14:23.497Z,80.33
2018-03-22T00:15:23.489Z,80.90
2018-03-22T00:16:23.487Z,81.84
2018-03-22T00:17:23.475Z,81.18
2018-03-22T00:18:24.318Z,80.52
2018-03-22T00:19:23.471Z,80.33
2018-03-22T00:20:23.448Z,80.80
2018-03-22T00:21:23.487Z,80.14
2018-03-22T00:22:23.458Z,80.62
2018-03-22T00:23:23.502Z,80.62
2018-03-22T00:24:23.423Z,80.52
2018-03-22T00:25:23.425Z,81.27
2018-03-22T00:26:23.437Z,80.52
2018-03-22T00:27:23.402Z,80.24
2018-03-22T00:28:23.457Z,80.71
2018-03-22T00:29:23.389Z,80.90
2018-03-22T00:30:23.435Z,81.84
2018-03-22T00:31:23.383Z,80.71
2018-03-22T00:32:23.360Z,81.84
2018-03-22T00:33:23.393Z,81.93
2018-03-22T00:34:23.353Z,80.90
2018-03-22T00:35:23.385Z,80.80
2018-03-22T00:36:23.335Z,81.04
2018-03-22T00:37:23.322Z,81.80
2018-03-22T00:38:23.391Z,82.56
2018-03-22T00:39:44.355Z,81.14
2018-03-22T00:40:23.343Z,81.33
2018-03-22T00:41:23.340Z,81.33
2018-03-22T00:42:23.328Z,82.56
2018-03-22T00:43:23.364Z,82.37
2018-03-22T00:44:23.278Z,83.69
2018-03-22T00:45:23.262Z,83.69
2018-03-22T00:46:23.267Z,84.82
2018-03-22T00:47:23.293Z,85.20
2018-03-22T00:48:23.343Z,83.88
2018-03-22T00:49:23.262Z,81.04
2018-03-22T00:50:23.246Z,82.28
2018-03-22T00:51:23.225Z,81.84
2018-03-22T00:52:23.243Z,80.99
2018-03-22T00:53:23.275Z,80.33
2018-03-22T00:54:23.216Z,79.76
2018-03-22T00:55:23.210Z,78.53
2018-03-22T00:56:23.238Z,79.95
2018-03-22T00:57:23.206Z,79.00
2018-03-22T00:58:23.237Z,79.67
2018-03-22T00:59:23.200Z,79.95
2018-03-22T01:00:47.057Z,80.33
2018-03-22T01:01:23.176Z,79.76
2018-03-22T01:02:23.244Z,80.14
2018-03-22T01:03:23.172Z,81.27
2018-03-22T01:04:23.150Z,80.14
2018-03-22T01:05:23.148Z,78.91
2018-03-22T01:06:23.126Z,80.71
2018-03-22T01:07:23.176Z,80.62
2018-03-22T01:08:23.120Z,81.09
2018-03-22T01:09:23.106Z,80.33
2018-03-22T01:10:23.124Z,79.19
2018-03-22T01:11:23.120Z,80.24
2018-03-22T01:12:23.118Z,80.24
2018-03-22T01:13:23.077Z,79.95
2018-03-22T01:14:23.103Z,81.09
2018-03-22T01:15:23.068Z,80.24
2018-03-22T01:16:23.053Z,79.76
2018-03-22T01:17:23.102Z,79.67
2018-03-22T01:18:23.043Z,79.10
2018-03-22T01:19:23.036Z,78.91
2018-03-22T01:20:23.038Z,80.24
2018-03-22T01:21:26.009Z,80.33
2018-03-22T01:22:23.049Z,80.62
2018-03-22T01:23:23.059Z,80.14
2018-03-22T01:24:23.032Z,79.76
2018-03-22T01:25:23.019Z,80.80
2018-03-22T01:26:23.003Z,80.43
2018-03-22T01:27:23.033Z,81.46
2018-03-22T01:28:22.971Z,80.05
2018-03-22T01:29:22.972Z,79.67
2018-03-22T01:30:23.001Z,82.41
2018-03-22T01:31:22.956Z,81.27
2018-03-22T01:32:23.027Z,79.38
2018-03-22T01:33:22.941Z,79.95
2018-03-22T01:34:22.928Z,80.99
2018-03-22T01:35:22.932Z,80.52
2018-03-22T01:36:22.968Z,79.19
2018-03-22T01:37:22.980Z,80.62
2018-03-22T01:38:22.942Z,80.80
2018-03-22T01:39:22.917Z,80.24
2018-03-22T01:40:22.908Z,79.86
2018-03-22T01:41:22.909Z,79.86
2018-03-22T01:42:24.513Z,80.05
2018-03-22T01:43:22.919Z,80.24
2018-03-22T01:44:22.873Z,79.95
2018-03-22T01:45:22.867Z,80.05
2018-03-22T01:46:22.891Z,79.86
2018-03-22T01:47:22.907Z,80.24
2018-03-22T01:48:22.838Z,79.95
2018-03-22T01:49:22.830Z,79.95
2018-03-22T01:50:22.837Z,79.86
2018-03-22T01:51:22.828Z,79.38
2018-03-22T01:52:22.891Z,80.14
2018-03-22T01:53:22.826Z,80.05
2018-03-22T01:54:22.807Z,79.86
2018-03-22T01:55:22.837Z,79.67
2018-03-22T01:56:22.804Z,79.57
2018-03-22T01:57:22.791Z,79.67
2018-03-22T01:58:22.850Z,79.48
2018-03-22T01:59:22.790Z,79.67
2018-03-22T02:00:22.782Z,79.38
2018-03-22T02:01:22.782Z,80.43
2018-03-22T02:02:22.775Z,80.05
2018-03-22T02:03:22.821Z,80.05
2018-03-22T02:04:22.739Z,80.14
2018-03-22T02:05:22.759Z,80.14
2018-03-22T02:06:22.738Z,80.24
2018-03-22T02:07:22.725Z,81.65
2018-03-22T02:08:22.779Z,80.33
2018-03-22T02:09:22.709Z,79.10
2018-03-22T02:10:22.706Z,80.14
2018-03-22T02:11:22.687Z,80.43
2018-03-22T02:12:22.723Z,79.57
2018-03-22T02:13:22.740Z,79.19
2018-03-22T02:14:22.668Z,80.24
2018-03-22T02:15:22.699Z,80.33
2018-03-22T02:16:22.669Z,80.52
2018-03-22T02:17:22.652Z,79.67
2018-03-22T02:18:22.730Z,79.19
2018-03-22T02:19:22.658Z,78.81
2018-03-22T02:20:22.629Z,79.48
2018-03-22T02:21:22.639Z,79.10
2018-03-22T02:22:22.808Z,80.43
2018-03-22T02:23:22.673Z,79.95
2018-03-22T02:24:22.635Z,80.80
2018-03-22T02:25:22.618Z,79.67
2018-03-22T02:26:22.574Z,80.43
2018-03-22T02:27:22.569Z,79.57
2018-03-22T02:28:22.658Z,79.76
2018-03-22T02:29:22.583Z,78.81
2018-03-22T02:30:22.577Z,79.00
2018-03-22T02:31:22.575Z,78.72
2018-03-22T02:32:22.558Z,78.53
2018-03-22T02:33:22.628Z,77.87
2018-03-22T02:34:22.550Z,77.97
2018-03-22T02:35:22.538Z,78.06
2018-03-22T02:36:22.534Z,78.53
2018-03-22T02:37:22.534Z,78.06
2018-03-22T02:38:22.562Z,77.87
2018-03-22T02:39:22.526Z,78.34
2018-03-22T02:40:22.535Z,78.16
2018-03-22T02:41:22.499Z,78.34
2018-03-22T02:42:22.487Z,78.25
2018-03-22T02:43:22.540Z,77.78
2018-03-22T02:44:22.492Z,76.93
2018-03-22T02:45:22.463Z,77.87
2018-03-22T02:46:22.470Z,78.53
2018-03-22T02:47:22.500Z,78.34
2018-03-22T02:48:22.456Z,78.06
2018-03-22T02:49:22.448Z,79.29
2018-03-22T02:50:22.428Z,78.63
2018-03-22T02:51:22.419Z,78.44
2018-03-22T02:52:22.486Z,78.16
2018-03-22T02:53:22.399Z,79.19
2018-03-22T02:54:22.452Z,79.38
2018-03-22T02:55:22.422Z,78.91
2018-03-22T02:56:22.425Z,79.57
2018-03-22T02:57:22.390Z,79.10
2018-03-22T02:58:22.429Z,79.48
2018-03-22T02:59:22.386Z,79.19
2018-03-22T03:00:22.393Z,78.63
2018-03-22T03:01:22.367Z,78.34
2018-03-22T03:02:22.404Z,80.33
2018-03-22T03:03:22.363Z,81.74
2018-03-22T03:04:22.385Z,80.90
2018-03-22T03:05:22.348Z,80.43
2018-03-22T03:06:22.335Z,79.10
2018-03-22T03:07:22.401Z,78.81
2018-03-22T03:08:22.329Z,78.16
2018-03-22T03:09:22.298Z,80.05
2018-03-22T03:10:22.310Z,78.91
2018-03-22T03:11:22.296Z,79.10
2018-03-22T03:12:22.344Z,78.44
2018-03-22T03:13:22.296Z,78.34
2018-03-22T03:14:22.275Z,78.72
2018-03-22T03:15:22.281Z,78.91
2018-03-22T03:16:22.272Z,79.29
2018-03-22T03:17:22.316Z,78.91
2018-03-22T03:18:22.250Z,79.57
2018-03-22T03:19:22.250Z,78.72
2018-03-22T03:20:22.260Z,80.62
2018-03-22T03:21:22.271Z,80.33
2018-03-22T03:22:22.220Z,80.43
2018-03-22T03:23:22.225Z,79.67
2018-03-22T03:24:22.234Z,80.05
2018-03-22T03:25:22.216Z,79.95
2018-03-22T03:26:22.249Z,80.24
2018-03-22T03:27:22.212Z,79.95
2018-03-22T03:28:22.179Z,79.67
2018-03-22T03:29:22.208Z,80.71
2018-03-22T03:30:22.176Z,80.14
2018-03-22T03:31:22.214Z,79.57
2018-03-22T03:32:22.177Z,79.10
2018-03-22T03:33:22.166Z,81.46
2018-03-22T03:34:22.149Z,81.65
2018-03-22T03:35:22.156Z,81.09
2018-03-22T03:36:22.192Z,80.80
2018-03-22T03:37:22.138Z,80.62
2018-03-22T03:38:22.135Z,80.14
2018-03-22T03:39:22.152Z,82.03
2018-03-22T03:40:22.112Z,80.90
2018-03-22T03:41:22.160Z,81.27
2018-03-22T03:42:22.087Z,81.46
2018-03-22T03:43:22.107Z,81.18
2018-03-22T03:44:22.116Z,80.14
2018-03-22T03:45:22.100Z,80.43
2018-03-22T03:46:22.113Z,80.05
2018-03-22T03:47:22.069Z,81.09
2018-03-22T03:48:22.076Z,81.27
2018-03-22T03:49:22.046Z,81.46
2018-03-22T03:50:22.045Z,80.43
2018-03-22T03:51:22.099Z,81.27
2018-03-22T03:52:22.050Z,81.65
2018-03-22T03:53:22.063Z,79.67
2018-03-22T03:54:22.027Z,81.84
2018-03-22T03:55:22.025Z,81.09
2018-03-22T03:56:22.010Z,81.56
2018-03-22T03:57:22.056Z,81.74
2018-03-22T03:58:21.996Z,80.14
2018-03-22T03:59:21.984Z,80.24
2018-03-22T04:00:21.980Z,79.38
2018-03-22T04:01:22.000Z,81.37
2018-03-22T04:02:22.045Z,81.09
2018-03-22T04:03:21.955Z,79.10
2018-03-22T04:04:21.951Z,80.05
2018-03-22T04:05:21.941Z,78.91
2018-03-22T04:06:21.979Z,80.80
2018-03-22T04:07:21.938Z,79.95
2018-03-22T04:08:21.923Z,80.14
2018-03-22T04:09:21.929Z,81.09
2018-03-22T04:10:21.912Z,80.52
2018-03-22T04:11:21.966Z,79.29
2018-03-22T04:12:21.920Z,79.19
2018-03-22T04:13:21.935Z,79.38
2018-03-22T04:14:21.900Z,79.19
2018-03-22T04:15:21.899Z,79.10
2018-03-22T04:16:21.915Z,80.43
2018-03-22T04:17:21.860Z,79.95
2018-03-22T04:18:21.866Z,80.14
2018-03-22T04:19:21.905Z,79.29
2018-03-22T04:20:21.858Z,79.00
2018-03-22T04:21:21.910Z,79.00
2018-03-22T04:22:21.852Z,79.10
2018-03-22T04:23:23.536Z,78.72
2018-03-22T04:24:21.825Z,79.57
2018-03-22T04:25:21.809Z,80.14
2018-03-22T04:26:21.868Z,80.52
2018-03-22T04:27:21.811Z,80.24
2018-03-22T04:28:21.781Z,80.90
2018-03-22T04:29:21.810Z,79.48
2018-03-22T04:30:21.781Z,79.38
2018-03-22T04:31:21.831Z,79.38
2018-03-22T04:32:21.778Z,79.10
2018-03-22T04:33:21.765Z,79.38
2018-03-22T04:34:21.768Z,80.24
2018-03-22T04:35:21.732Z,78.63
2018-03-22T04:36:21.793Z,77.97
2018-03-22T04:37:21.765Z,79.00
2018-03-22T04:38:21.718Z,78.06
2018-03-22T04:39:21.740Z,78.25
2018-03-22T04:40:21.706Z,77.40
2018-03-22T04:41:21.766Z,77.40
2018-03-22T04:42:21.713Z,77.40
2018-03-22T04:43:21.711Z,77.59
2018-03-22T04:44:21.706Z,77.78
2018-03-22T04:45:21.700Z,78.16
2018-03-22T04:46:21.738Z,77.21
2018-03-22T04:47:21.663Z,77.78
2018-03-22T04:48:21.680Z,77.59
2018-03-22T04:49:21.666Z,76.83
2018-03-22T04:50:21.658Z,76.55
2018-03-22T04:51:21.708Z,77.40
2018-03-22T04:52:21.648Z,77.69
2018-03-22T04:53:21.643Z,77.69
2018-03-22T04:54:21.649Z,77.50
2018-03-22T04:55:21.619Z,77.50
2018-03-22T04:56:21.615Z,77.21
2018-03-22T04:57:21.657Z,77.40
2018-03-22T04:58:21.599Z,78.53
2018-03-22T04:59:21.583Z,79.00
2018-03-22T05:00:21.592Z,78.48
2018-03-22T05:01:21.588Z,79.00
2018-03-22T05:02:21.641Z,77.50
2018-03-22T05:03:21.586Z,76.45
2018-03-22T05:04:21.558Z,77.87
2018-03-22T05:05:21.570Z,78.44
2018-03-22T05:06:21.563Z,77.50
2018-03-22T05:07:21.570Z,77.50
2018-03-22T05:08:21.539Z,76.74
2018-03-22T05:09:21.557Z,76.55
2018-03-22T05:10:21.540Z,76.83
2018-03-22T05:11:21.533Z,77.06
2018-03-22T05:12:21.568Z,76.97
2018-03-22T05:13:21.529Z,76.83
2018-03-22T05:14:21.495Z,76.26
2018-03-22T05:15:21.508Z,75.32
2018-03-22T05:16:21.497Z,75.04
2018-03-22T05:17:21.511Z,75.13
2018-03-22T05:18:21.466Z,75.89
2018-03-22T05:19:21.459Z,75.51
2018-03-22T05:20:21.465Z,74.95
2018-03-22T05:21:21.477Z,74.76
2018-03-22T05:22:21.499Z,75.04
2018-03-22T05:23:21.465Z,75.98
2018-03-22T05:24:21.424Z,75.89
2018-03-22T05:25:21.455Z,75.13
2018-03-22T05:26:21.453Z,75.32
2018-03-22T05:27:21.506Z,75.04
2018-03-22T05:28:21.411Z,74.38
2018-03-22T05:29:21.421Z,75.23
2018-03-22T05:30:21.426Z,76.64
2018-03-22T05:31:21.397Z,75.93
2018-03-22T05:32:21.411Z,77.53
2018-03-22T05:33:21.406Z,76.07
2018-03-22T05:34:21.383Z,74.76
2018-03-22T05:35:21.372Z,76.26
2018-03-22T05:36:21.362Z,75.55
2018-03-22T05:37:21.368Z,75.23
2018-03-22T05:38:21.414Z,74.69
2018-03-22T05:39:21.342Z,75.17
2018-03-22T05:40:21.381Z,76.02
2018-03-22T05:41:21.364Z,76.17
2018-03-22T05:42:21.329Z,74.95
2018-03-22T05:43:21.371Z,74.76
2018-03-22T05:44:21.318Z,74.88
2018-03-22T05:45:21.326Z,76.97
2018-03-22T05:46:21.293Z,76.68
2018-03-22T05:47:21.286Z,77.44
2018-03-22T05:48:21.352Z,76.78
2018-03-22T05:49:21.305Z,75.74
2018-03-22T05:50:21.281Z,75.26
2018-03-22T05:51:21.266Z,76.02
2018-03-22T05:52:21.275Z,76.78
2018-03-22T05:53:21.301Z,78.01
2018-03-22T05:54:21.243Z,78.20
2018-03-22T05:55:21.238Z,78.01
2018-03-22T05:56:21.249Z,77.91
2018-03-22T05:57:21.230Z,78.20
2018-03-22T05:58:21.279Z,77.91
2018-03-22T05:59:21.232Z,77.44
2018-03-22T06:00:21.208Z,77.06
2018-03-22T06:01:21.232Z,76.59
2018-03-22T06:02:21.250Z,76.12
2018-03-22T06:03:21.195Z,77.34
2018-03-22T06:04:21.202Z,79.43
2018-03-22T06:05:21.208Z,78.01
2018-03-22T06:06:21.156Z,78.01
2018-03-22T06:07:21.219Z,77.53
2018-03-22T06:08:21.166Z,78.39
2018-03-22T06:09:21.162Z,78.01
2018-03-22T06:10:21.163Z,77.44
2018-03-22T06:11:21.167Z,77.44
2018-03-22T06:12:21.221Z,76.59
2018-03-22T06:13:21.141Z,77.25
2018-03-22T06:14:21.189Z,78.01
2018-03-22T06:15:21.112Z,78.10
2018-03-22T06:16:21.134Z,78.10
2018-03-22T06:17:21.195Z,80.46
2018-03-22T06:18:21.125Z,78.48
2018-03-22T06:19:21.112Z,78.39
2018-03-22T06:20:21.113Z,79.05
2018-03-22T06:21:21.100Z,78.76
2018-03-22T06:22:21.148Z,78.10
2018-03-22T06:23:21.086Z,78.58
2018-03-22T06:24:21.099Z,78.01
2018-03-22T06:25:21.083Z,79.05
2018-03-22T06:26:21.065Z,78.48
2018-03-22T06:27:21.098Z,79.33
2018-03-22T06:28:21.054Z,78.58
2018-03-22T06:29:21.074Z,78.39
2018-03-22T06:30:21.038Z,78.29
2018-03-22T06:31:21.080Z,78.76
2018-03-22T06:32:21.032Z,78.58
2018-03-22T06:33:21.012Z,78.10
2018-03-22T06:34:21.012Z,79.14
2018-03-22T06:35:21.027Z,79.24
2018-03-22T06:36:21.098Z,79.14
2018-03-22T06:37:21.018Z,79.24
2018-03-22T06:38:21.026Z,81.03
2018-03-22T06:39:20.988Z,80.56
2018-03-22T06:40:20.988Z,80.65
2018-03-22T06:41:20.968Z,80.08
2018-03-22T06:42:21.020Z,79.14
2018-03-22T06:43:20.966Z,79.80
2018-03-22T06:44:21.039Z,78.76
2018-03-22T06:45:20.954Z,78.67
2018-03-22T06:46:20.935Z,79.43
2018-03-22T06:47:20.989Z,79.43
2018-03-22T06:48:20.927Z,79.33
2018-03-22T06:49:20.948Z,79.61
2018-03-22T06:50:20.964Z,79.90
2018-03-22T06:51:20.956Z,79.52
2018-03-22T06:52:20.973Z,79.99
2018-03-22T06:53:20.907Z,81.60
2018-03-22T06:54:20.924Z,79.80
2018-03-22T06:55:20.903Z,79.24
2018-03-22T06:56:20.935Z,79.05
2018-03-22T06:57:20.883Z,78.76
2018-03-22T06:58:20.872Z,78.39
2018-03-22T06:59:20.872Z,80.46
2018-03-22T07:00:20.891Z,79.24
2018-03-22T07:01:20.903Z,78.86
2018-03-22T07:02:20.873Z,78.86
2018-03-22T07:03:20.856Z,79.43
2018-03-22T07:04:20.859Z,79.80
2018-03-22T07:05:20.839Z,78.58
2018-03-22T07:06:20.844Z,79.24
2018-03-22T07:07:20.897Z,79.94
2018-03-22T07:08:20.826Z,78.10
2018-03-22T07:09:20.870Z,79.28
2018-03-22T07:10:20.810Z,78.99
2018-03-22T07:11:20.849Z,80.13
2018-03-22T07:12:20.815Z,80.51
2018-03-22T07:13:20.802Z,81.30
2018-03-22T07:14:20.795Z,79.28
2018-03-22T07:15:20.820Z,78.42
2018-03-22T07:16:20.887Z,79.85
2018-03-22T07:17:20.780Z,79.66
2018-03-22T07:18:20.787Z,79.94
2018-03-22T07:19:20.774Z,78.42
2018-03-22T07:20:20.749Z,80.41
2018-03-22T07:21:20.801Z,80.13
2018-03-22T07:22:20.748Z,81.26
2018-03-22T07:23:20.773Z,80.88
2018-03-22T07:24:20.843Z,80.88
2018-03-22T07:25:20.741Z,80.69
2018-03-22T07:26:20.807Z,80.13
2018-03-22T07:27:20.780Z,80.79
2018-03-22T07:28:20.752Z,80.69
2018-03-22T07:29:20.717Z,80.98
2018-03-22T07:30:20.745Z,79.37
2018-03-22T07:31:20.754Z,82.31
2018-03-22T07:32:20.729Z,80.60
2018-03-22T07:33:20.731Z,80.69
2018-03-22T07:34:20.689Z,80.41
2018-03-22T07:35:20.740Z,79.47
2018-03-22T07:36:20.705Z,81.64
2018-03-22T07:37:20.706Z,82.97
2018-03-22T07:38:20.697Z,82.21
2018-03-22T07:39:20.708Z,82.59
2018-03-22T07:40:20.734Z,81.26
2018-03-22T07:41:20.684Z,82.50
2018-03-22T07:42:20.670Z,83.06
2018-03-22T07:43:20.674Z,83.25
2018-03-22T07:44:20.670Z,83.06
2018-03-22T07:45:20.732Z,83.15
2018-03-22T07:46:21.458Z,82.40
2018-03-22T07:47:20.711Z,83.82
2018-03-22T07:48:21.289Z,81.07
2018-03-22T07:49:20.661Z,81.40
2018-03-22T07:50:20.704Z,82.72
2018-03-22T07:51:20.638Z,83.95
2018-03-22T07:52:20.652Z,82.44
2018-03-22T07:53:20.656Z,83.20
2018-03-22T07:54:20.627Z,81.59
2018-03-22T07:55:20.655Z,82.15
2018-03-22T07:56:20.624Z,81.96
2018-03-22T07:57:20.623Z,82.34
2018-03-22T07:58:20.609Z,83.76
2018-03-22T07:59:20.619Z,83.44
2018-03-22T08:00:20.658Z,82.59
2018-03-22T08:01:20.594Z,83.91
2018-03-22T08:02:20.589Z,83.44
2018-03-22T08:03:20.585Z,82.87
2018-03-22T08:04:20.588Z,83.58
2018-03-22T08:05:20.625Z,82.97
2018-03-22T08:06:20.620Z,84.01
2018-03-22T08:07:20.576Z,81.17
2018-03-22T08:08:20.584Z,82.21
2018-03-22T08:09:20.570Z,82.91
2018-03-22T08:10:20.591Z,83.67
2018-03-22T08:11:20.583Z,84.05
2018-03-22T08:12:20.559Z,83.76
2018-03-22T08:13:20.544Z,82.25
2018-03-22T08:14:20.539Z,80.93
2018-03-22T08:15:20.590Z,82.63
2018-03-22T08:16:20.555Z,82.91
2018-03-22T08:17:20.539Z,83.58
2018-03-22T08:18:20.533Z,83.95
2018-03-22T08:19:20.538Z,83.67
2018-03-22T08:20:20.565Z,82.25
2018-03-22T08:21:20.546Z,82.15
2018-03-22T08:22:20.499Z,85.09
2018-03-22T08:23:20.514Z,82.82
2018-03-22T08:24:20.521Z,83.86
2018-03-22T08:25:20.540Z,83.20
2018-03-22T08:26:20.540Z,82.44
2018-03-22T08:27:20.513Z,83.20
2018-03-22T08:28:20.502Z,82.72
2018-03-22T08:29:20.544Z,83.58
2018-03-22T08:30:20.478Z,83.10
2018-03-22T08:31:20.505Z,82.25
2018-03-22T08:32:20.494Z,80.45
2018-03-22T08:33:20.491Z,83.48
2018-03-22T08:34:20.553Z,84.23
2018-03-22T08:35:20.471Z,83.10
2018-03-22T08:36:20.467Z,82.91
2018-03-22T08:37:20.464Z,83.76
2018-03-22T08:38:20.463Z,82.72
2018-03-22T08:39:20.444Z,83.29
2018-03-22T08:40:20.493Z,84.23
2018-03-22T08:41:20.463Z,83.76
2018-03-22T08:42:20.451Z,83.86
2018-03-22T08:43:20.469Z,83.95
2018-03-22T08:44:20.422Z,82.87
2018-03-22T08:45:20.464Z,82.72
2018-03-22T08:46:20.472Z,83.58
2018-03-22T08:47:20.427Z,82.40
2018-03-22T08:48:20.423Z,83.76
2018-03-22T08:49:20.425Z,83.58
2018-03-22T08:50:20.487Z,84.05
2018-03-22T08:51:20.398Z,84.42
2018-03-22T08:52:20.412Z,83.01
2018-03-22T08:53:20.408Z,81.30
2018-03-22T08:54:20.614Z,85.09
2018-03-22T08:55:20.420Z,83.44
2018-03-22T08:56:20.371Z,83.06
2018-03-22T08:57:20.379Z,83.39
2018-03-22T08:58:20.418Z,83.82
2018-03-22T08:59:20.396Z,83.44
2018-03-22T09:00:20.411Z,84.01
2018-03-22T09:01:20.365Z,83.91
2018-03-22T09:02:20.365Z,84.29
2018-03-22T09:03:20.341Z,81.83
2018-03-22T09:04:20.404Z,84.29
2018-03-22T09:05:20.345Z,82.68
2018-03-22T09:06:20.332Z,85.14
2018-03-22T09:07:20.336Z,83.15
2018-03-22T09:08:20.365Z,83.82
2018-03-22T09:09:20.381Z,83.53
2018-03-22T09:10:20.323Z,82.87
2018-03-22T09:11:20.329Z,83.25
2018-03-22T09:12:20.310Z,83.91
2018-03-22T09:13:20.358Z,81.36
2018-03-22T09:14:20.378Z,84.20
2018-03-22T09:15:20.363Z,83.91
2018-03-22T09:16:20.311Z,83.44
2018-03-22T09:17:20.354Z,83.91
2018-03-22T09:18:20.296Z,82.78
2018-03-22T09:19:20.494Z,81.83
2018-03-22T09:20:20.272Z,83.34
2018-03-22T09:21:20.332Z,82.97
2018-03-22T09:22:20.262Z,82.87
2018-03-22T09:23:20.258Z,82.12
2018-03-22T09:24:20.297Z,83.63
2018-03-22T09:25:20.253Z,82.50
2018-03-22T09:26:20.245Z,83.15
2018-03-22T09:27:20.240Z,83.44
2018-03-22T09:28:20.238Z,81.93
2018-03-22T09:29:20.304Z,82.78
2018-03-22T09:30:20.233Z,82.59
2018-03-22T09:31:20.220Z,82.68
2018-03-22T09:32:20.218Z,83.72
2018-03-22T09:33:20.218Z,82.97
2018-03-22T09:34:20.253Z,82.50
2018-03-22T09:35:20.198Z,82.31
2018-03-22T09:36:20.215Z,83.15
2018-03-22T09:37:20.193Z,82.15
2018-03-22T09:38:20.214Z,82.53
2018-03-22T09:39:20.245Z,81.96
2018-03-22T09:40:20.178Z,81.77
2018-03-22T09:41:20.191Z,82.44
2018-03-22T09:42:20.192Z,82.82
2018-03-22T09:43:20.179Z,82.72
2018-03-22T09:44:20.194Z,82.91
2018-03-22T09:45:20.214Z,82.91
2018-03-22T09:46:20.172Z,82.44
2018-03-22T09:47:20.192Z,82.63
2018-03-22T09:48:20.157Z,81.59
2018-03-22T09:49:20.214Z,83.10
2018-03-22T09:50:20.149Z,81.49
2018-03-22T09:51:20.188Z,82.06
2018-03-22T09:52:20.151Z,81.87
2018-03-22T09:53:20.145Z,82.25
2018-03-22T09:54:20.128Z,82.91
2018-03-22T09:55:20.187Z,82.53
2018-03-22T09:56:20.108Z,82.44
2018-03-22T09:57:20.141Z,81.96
2018-03-22T09:58:20.112Z,81.30
2018-03-22T09:59:20.110Z,82.57
2018-03-22T10:00:20.161Z,80.40
2018-03-22T10:01:20.100Z,82.01
2018-03-22T10:02:20.108Z,80.83
2018-03-22T10:03:20.107Z,81.63
2018-03-22T10:04:20.087Z,80.68
2018-03-22T10:05:20.149Z,80.77
2018-03-22T10:06:20.102Z,81.01
2018-03-22T10:07:20.088Z,80.11
2018-03-22T10:08:20.098Z,80.30
2018-03-22T10:09:20.106Z,80.06
2018-03-22T10:10:20.149Z,80.40
2018-03-22T10:11:20.080Z,80.96
2018-03-22T10:12:20.066Z,81.38
2018-03-22T10:13:20.079Z,80.87
2018-03-22T10:14:20.053Z,80.96
2018-03-22T10:15:20.127Z,80.25
2018-03-22T10:16:20.092Z,80.82
2018-03-22T10:17:20.059Z,80.63
2018-03-22T10:18:20.080Z,81.10
2018-03-22T10:19:20.072Z,79.39
2018-03-22T10:20:20.159Z,80.34
2018-03-22T10:21:20.049Z,79.77
2018-03-22T10:22:20.074Z,79.96
2018-03-22T10:23:20.071Z,80.25
2018-03-22T10:24:20.057Z,80.67
2018-03-22T10:25:20.110Z,80.38
2018-03-22T10:26:20.051Z,80.67
2018-03-22T10:27:20.050Z,80.00
2018-03-22T10:28:20.059Z,78.58
2018-03-22T10:29:20.044Z,79.06
2018-03-22T10:30:20.040Z,79.44
2018-03-22T10:31:20.101Z,79.00
2018-03-22T10:32:20.036Z,79.44
2018-03-22T10:33:20.033Z,78.67
2018-03-22T10:34:20.071Z,78.81
2018-03-22T10:35:20.029Z,78.81
2018-03-22T10:36:20.083Z,78.72
2018-03-22T10:37:20.045Z,78.66
2018-03-22T10:38:20.044Z,78.15
2018-03-22T10:39:20.020Z,77.62
2018-03-22T10:40:20.036Z,77.77
2018-03-22T10:41:20.074Z,78.24
2018-03-22T10:42:20.019Z,78.72
2018-03-22T10:43:20.052Z,78.34
2018-03-22T10:44:20.059Z,79.25
2018-03-22T10:45:20.033Z,79.28
2018-03-22T10:46:20.128Z,80.29
2018-03-22T10:47:20.045Z,80.29
2018-03-22T10:48:20.034Z,81.14
2018-03-22T10:49:20.048Z,80.67
2018-03-22T10:50:20.037Z,79.91
2018-03-22T10:51:20.056Z,80.48
2018-03-22T10:52:20.044Z,80.76
2018-03-22T10:53:20.067Z,80.76
2018-03-22T10:54:20.074Z,80.06
2018-03-22T10:55:20.009Z,80.10
2018-03-22T10:56:20.056Z,81.43
2018-03-22T10:57:20.015Z,81.62
2018-03-22T10:58:20.051Z,81.71
2018-03-22T10:59:20.016Z,80.95
2018-03-22T11:00:20.014Z,80.29
2018-03-22T11:01:20.081Z,80.38
2018-03-22T11:02:20.022Z,81.05
2018-03-22T11:03:20.024Z,80.76
2018-03-22T11:04:20.094Z,80.86
2018-03-22T11:05:20.025Z,80.62
2018-03-22T11:06:20.060Z,80.62
2018-03-22T11:07:20.000Z,80.62
2018-03-22T11:08:20.007Z,80.14
2018-03-22T11:09:20.010Z,79.47
2018-03-22T11:10:20.011Z,80.04
2018-03-22T11:11:20.069Z,80.10
2018-03-22T11:12:20.004Z,80.67
2018-03-22T11:13:19.982Z,80.00
2018-03-22T11:14:19.997Z,81.05
2018-03-22T11:15:19.992Z,80.95
2018-03-22T11:16:20.068Z,80.67
2018-03-22T11:17:19.996Z,81.33
2018-03-22T11:18:20.012Z,81.62
2018-03-22T11:19:20.001Z,82.28
2018-03-22T11:20:20.017Z,82.75
2018-03-22T11:21:20.007Z,82.14
2018-03-22T11:22:20.044Z,82.14
2018-03-22T11:23:20.029Z,81.38
2018-03-22T11:24:19.982Z,82.71
2018-03-22T11:25:19.979Z,82.52
2018-03-22T11:26:19.960Z,83.37
2018-03-22T11:27:20.030Z,82.24
2018-03-22T11:28:19.979Z,82.05
2018-03-22T11:29:19.987Z,83.47
2018-03-22T11:30:19.969Z,83.94
2018-03-22T11:31:19.992Z,83.66
2018-03-22T11:32:20.024Z,82.62
2018-03-22T11:33:19.976Z,83.04
2018-03-22T11:34:19.987Z,84.17
2018-03-22T11:35:19.965Z,83.66
2018-03-22T11:36:19.999Z,82.05
2018-03-22T11:37:19.973Z,83.00
2018-03-22T11:38:19.956Z,82.56
2018-03-22T11:39:19.956Z,83.32
2018-03-22T11:40:19.946Z,85.13
2018-03-22T11:41:20.031Z,83.04
2018-03-22T11:42:19.928Z,83.04
2018-03-22T11:43:19.936Z,82.94
2018-03-22T11:44:19.938Z,83.89
2018-03-22T11:45:41.039Z,82.47
2018-03-22T11:46:19.985Z,83.18
2018-03-22T11:47:19.930Z,83.94
2018-03-22T11:48:19.922Z,81.86
2018-03-22T11:49:19.904Z,82.62
2018-03-22T11:50:19.921Z,80.72
2018-03-22T11:51:19.964Z,81.20
2018-03-22T11:52:19.952Z,82.05
2018-03-22T11:53:19.923Z,83.75
2018-03-22T11:54:19.922Z,79.77
2018-03-22T11:55:19.935Z,83.33
2018-03-22T11:56:19.972Z,80.58
2018-03-22T11:57:19.914Z,79.55
2018-03-22T11:58:19.902Z,80.02
2018-03-22T11:59:19.922Z,80.68
2018-03-22T12:00:19.919Z,78.07
2018-03-22T12:01:19.974Z,80.15
2018-03-22T12:02:19.881Z,80.53
2018-03-22T12:03:19.882Z,80.34
2018-03-22T12:04:19.900Z,79.21
2018-03-22T12:05:19.883Z,80.44
2018-03-22T12:07:55.591Z,75.79
2018-03-22T12:08:55.517Z,79.11
2018-03-22T12:09:55.447Z,78.88
2018-03-22T12:10:55.431Z,74.81
2018-03-22T12:11:55.422Z,75.00
2018-03-22T12:12:55.407Z,73.39
2018-03-22T12:13:55.421Z,68.37
2018-03-22T12:14:55.402Z,60.10
2018-03-22T12:15:55.449Z,59.25
2018-03-22T12:16:56.081Z,60.19
2018-03-22T12:17:56.100Z,65.78
2018-03-22T12:18:56.122Z,67.14
2018-03-22T12:19:55.414Z,68.37
2018-03-22T12:20:55.587Z,66.16
2018-03-22T12:21:55.387Z,63.60
2018-03-22T12:22:55.364Z,65.15
2018-03-22T12:23:55.404Z,67.49
2018-03-22T12:24:55.376Z,66.82
2018-03-22T12:25:55.396Z,66.63
2018-03-22T12:26:55.348Z,65.69
2018-03-22T12:27:55.436Z,65.12
2018-03-22T12:28:55.333Z,63.42
2018-03-22T12:29:55.355Z,63.98
2018-03-22T12:30:55.396Z,64.83
2018-03-22T12:31:55.378Z,62.85
2018-03-22T12:32:55.360Z,63.42
2018-03-22T12:33:55.317Z,62.56
2018-03-22T12:34:55.333Z,62.28
2018-03-22T12:35:55.367Z,61.05
2018-03-22T12:36:55.321Z,61.61
2018-03-22T12:37:55.308Z,61.71
2018-03-22T12:38:55.319Z,62.28
2018-03-22T12:39:55.328Z,64.64
2018-03-22T12:40:55.332Z,63.13
2018-03-22T12:41:55.277Z,63.51
2018-03-22T12:42:55.299Z,63.51
2018-03-22T12:43:55.286Z,63.70
2018-03-22T12:44:55.316Z,62.47
2018-03-22T12:45:55.316Z,64.74
2018-03-22T12:46:55.272Z,65.06
2018-03-22T12:47:55.266Z,65.81
2018-03-22T12:48:55.261Z,68.46
2018-03-22T12:49:55.269Z,69.98
2018-03-22T12:50:55.304Z,69.13
2018-03-22T12:51:55.246Z,65.72
2018-03-22T12:52:55.305Z,67.71
2018-03-22T12:53:55.245Z,65.53